Time;durP1;ratioP1;P1;durP2;ratioP2;P2;SDS_P1;SDS_P2;PMS_P1;PMS_P2;Temp;Humidity;BMP_temperature;BMP_pressure;BME280_temperature;BME280_humidity;BME280_pressure;Samples;Min_cycle;Max_cycle;Signal;HPM_P1;HPM_P2
2021/12/28 00:00:11;;;;;;;;;;;9.40;99.90;9.80;98380.00;;;;423752;22;91900;-92
2021/12/28 00:00:24;;;;;;;;;;;9.40;99.90;9.80;98376.00;;;;420639;23;83397;-93
2021/12/28 00:00:35;;;;;;;;;;;9.40;99.90;9.80;98370.00;;;;422616;23;90653;-92
2021/12/28 00:00:47;;;;;;;;;;;9.40;99.90;9.80;98378.00;;;;424741;22;83420;-92
2021/12/28 00:01:01;;;;;;;;;;;9.40;99.90;9.80;98379.00;;;;422297;23;91727;-92
2021/12/28 00:01:14;;;;;;;;;;;9.40;99.90;9.90;98372.00;;;;420655;23;82466;-92
2021/12/28 00:01:27;;;;;;;;;;;9.40;99.90;9.80;98375.00;;;;422267;23;91409;-92
2021/12/28 00:01:39;;;;;;;;;;;9.40;99.90;9.80;98366.00;;;;422976;23;83367;-92
2021/12/28 00:01:51;;;;;;;;;;;9.30;99.90;9.80;98375.00;;;;421835;23;90056;-91
2021/12/28 00:02:04;;;;;;;;;;;9.40;99.90;9.90;98375.00;;;;422799;23;83369;-93
2021/12/28 00:02:18;;;;;;;;;;;9.40;99.90;9.80;98374.00;;;;424341;22;91782;-92
2021/12/28 00:02:30;;;;;;;;;;;9.40;99.90;9.80;98375.00;;;;420569;23;82545;-93
2021/12/28 00:02:45;;;;;;;;;;;9.30;99.90;9.80;98375.00;;;;420323;23;90517;-92
2021/12/28 00:02:57;;;;;;;;;;;9.40;99.90;9.90;98380.00;;;;422694;23;83491;-91
2021/12/28 00:03:09;;;;;;;;;;;9.40;99.90;9.80;98378.00;;;;422175;23;92047;-92
2021/12/28 00:03:21;;;;;;;;;;;9.40;99.90;9.80;98379.00;;;;422779;23;83152;-93
2021/12/28 00:03:34;;;;;;;;;;;9.40;99.90;9.80;98370.00;;;;418520;23;90290;-93
2021/12/28 00:03:46;;;;;;;;;;;9.40;99.90;9.90;98376.00;;;;427187;22;83422;-93
2021/12/28 00:03:58;;;;;;;;;;;9.40;99.90;9.90;98373.00;;;;422239;23;92121;-94
2021/12/28 00:04:10;;;;;;;;;;;9.40;99.90;9.90;98371.00;;;;420668;23;83466;-92
2021/12/28 00:04:23;;;;;;;;;;;9.40;99.90;9.90;98376.00;;;;424250;22;91817;-92
2021/12/28 00:04:35;;;;;;;;;;;9.40;99.90;9.90;98379.00;;;;424841;22;83386;-92
2021/12/28 00:04:47;;;;;;;;;;;9.40;99.90;9.90;98381.00;;;;422305;23;91257;-92
2021/12/28 00:04:59;;;;;;;;;;;9.40;99.90;9.90;98380.00;;;;424851;22;83763;-93
2021/12/28 00:05:11;;;;;;;;;;;9.40;99.90;9.80;98377.00;;;;422190;23;90939;-92
2021/12/28 00:05:24;;;;;;;;;;;9.40;99.90;9.90;98367.00;;;;419108;23;82438;-93
2021/12/28 00:05:35;;;;;;;;;;;9.40;99.90;9.90;98373.00;;;;422731;23;90501;-93
2021/12/28 00:05:47;;;;;;;;;;;9.40;99.90;9.90;98373.00;;;;424709;22;83462;-93
2021/12/28 00:06:00;;;;;;;;;;;9.40;99.90;9.80;98378.00;;;;422153;23;91838;-92
2021/12/28 00:06:18;;;;;;;;;;;9.40;99.90;9.80;98368.00;;;;422702;23;83435;-92
2021/12/28 00:06:30;;;;;;;;;;;9.40;99.90;9.80;98378.00;;;;420303;23;91663;-93
2021/12/28 00:06:42;;;;;;;;;;;9.40;99.90;9.80;98376.00;;;;421081;23;83361;-93
2021/12/28 00:06:54;;;;;;;;;;;9.40;99.90;9.90;98372.00;;;;421899;23;91974;-92
2021/12/28 00:07:06;;;;;;;;;;;9.40;99.90;9.90;98371.00;;;;420500;23;83499;-92
2021/12/28 00:07:18;;;;;;;;;;;9.40;99.90;9.90;98379.00;;;;422221;23;89957;-92
2021/12/28 00:07:30;;;;;;;;;;;9.40;99.90;9.90;98368.00;;;;422680;23;83360;-93
2021/12/28 00:07:42;;;;;;;;;;;9.40;99.90;9.90;98370.00;;;;424312;22;92012;-93
2021/12/28 00:07:54;;;;;;;;;;;9.40;99.90;9.90;98371.00;;;;422743;23;82492;-93
2021/12/28 00:08:05;;;;;;;;;;;9.40;99.90;9.90;98373.00;;;;426363;22;90589;-93
2021/12/28 00:08:19;;;;;;;;;;;9.40;99.90;9.80;98368.00;;;;423114;22;83426;-93
2021/12/28 00:08:31;;;;;;;;;;;9.40;99.90;9.90;98370.00;;;;420120;23;92690;-92
2021/12/28 00:08:43;;;;;;;;;;;9.40;99.90;9.90;98377.00;;;;420728;23;83339;-93
2021/12/28 00:08:54;;;;;;;;;;;9.40;99.90;9.80;98379.00;;;;422233;23;91843;-93
2021/12/28 00:09:07;;;;;;;;;;;9.40;99.90;9.80;98371.00;;;;420728;23;83466;-93
2021/12/28 00:09:19;;;;;;;;;;;9.40;99.90;9.90;98373.00;;;;424686;22;89552;-93
2021/12/28 00:09:31;;;;;;;;;;;9.40;99.90;9.90;98369.00;;;;424810;22;83415;-93
2021/12/28 00:09:44;;;;;;;;;;;9.40;99.90;9.90;98375.00;;;;422183;23;91732;-93
2021/12/28 00:09:55;;;;;;;;;;;9.40;99.90;9.90;98374.00;;;;424819;22;82541;-93
2021/12/28 00:10:09;;;;;;;;;;;9.40;99.90;9.90;98374.00;;;;422619;23;91509;-93
2021/12/28 00:10:21;;;;;;;;;;;9.40;99.90;9.80;98382.00;;;;424901;22;83363;-92
2021/12/28 00:10:33;;;;;;;;;;;9.40;99.90;9.90;98380.00;;;;424165;22;92557;-93
2021/12/28 00:10:48;;;;;;;;;;;9.40;99.90;9.90;98376.00;;;;424587;22;82696;-93
2021/12/28 00:11:01;;;;;;;;;;;9.40;99.90;9.90;98372.00;;;;418072;23;91021;-93
2021/12/28 00:11:13;;;;;;;;;;;9.40;99.90;9.90;98377.00;;;;418974;23;83365;-93
2021/12/28 00:11:25;;;;;;;;;;;9.40;99.90;9.90;98376.00;;;;420398;23;90868;-93
2021/12/28 00:11:37;;;;;;;;;;;9.40;99.90;9.90;98382.00;;;;427399;22;83947;-93
2021/12/28 00:11:48;;;;;;;;;;;9.40;99.90;9.90;98382.00;;;;420100;23;89987;-93
2021/12/28 00:12:01;;;;;;;;;;;9.40;99.90;9.90;98382.00;;;;418573;23;83335;-93
2021/12/28 00:12:13;;;;;;;;;;;9.40;99.90;9.90;98378.00;;;;420604;23;90326;-92
2021/12/28 00:12:28;;;;;;;;;;;9.40;99.90;9.90;98382.00;;;;422802;23;82488;-92
2021/12/28 00:12:40;;;;;;;;;;;9.40;99.90;9.90;98389.00;;;;418218;23;92461;-93
2021/12/28 00:12:52;;;;;;;;;;;9.40;99.90;9.90;98384.00;;;;421006;23;83333;-92
2021/12/28 00:13:03;;;;;;;;;;;9.40;99.90;9.80;98391.00;;;;422532;23;90650;-92
2021/12/28 00:13:16;;;;;;;;;;;9.40;99.90;9.80;98384.00;;;;421247;23;83289;-94
2021/12/28 00:13:29;;;;;;;;;;;9.40;99.90;9.80;98391.00;;;;424722;22;90465;-93
2021/12/28 00:13:42;;;;;;;;;;;9.40;99.90;9.80;98381.00;;;;426717;22;83352;-93
2021/12/28 00:14:00;;;;;;;;;;;9.40;99.90;9.80;98389.00;;;;422280;23;91059;-92
2021/12/28 00:14:15;;;;;;;;;;;9.40;99.90;9.90;98396.00;;;;422557;23;83041;-90
2021/12/28 00:14:34;;;;;;;;;;;9.40;99.90;9.90;98388.00;;;;418224;23;90821;-92
2021/12/28 00:15:05;;;;;;;;;;;9.40;99.90;9.90;98391.00;;;;421066;23;82454;-92
2021/12/28 00:18:07;;;;;;;;;;;9.40;99.90;9.80;98409.00;;;;419837;23;90955;-92
2021/12/28 00:18:19;;;;;;;;;;;9.40;99.90;9.80;98411.00;;;;414621;23;83447;-91
2021/12/28 00:18:31;;;;;;;;;;;9.40;99.90;9.80;98410.00;;;;414337;23;90628;-92
2021/12/28 00:18:43;;;;;;;;;;;9.40;99.90;9.80;98419.00;;;;416961;23;83287;-91
2021/12/28 00:18:55;;;;;;;;;;;9.40;99.90;9.80;98412.00;;;;414242;23;91524;-92
2021/12/28 00:19:07;;;;;;;;;;;9.40;99.90;9.80;98414.00;;;;416609;23;83365;-92
2021/12/28 00:19:20;;;;;;;;;;;9.40;99.90;9.90;98420.00;;;;414257;23;91443;-92
2021/12/28 00:19:32;;;;;;;;;;;9.40;99.90;9.90;98417.00;;;;416961;23;83115;-92
2021/12/28 00:19:44;;;;;;;;;;;9.40;99.90;9.90;98419.00;;;;412108;23;91363;-91
2021/12/28 00:19:55;;;;;;;;;;;9.40;99.90;9.80;98414.00;;;;418525;23;83829;-92
2021/12/28 00:20:07;;;;;;;;;;;9.40;99.90;9.80;98408.00;;;;417907;23;90473;-92
2021/12/28 00:20:19;;;;;;;;;;;9.40;99.90;9.80;98412.00;;;;418643;23;83333;-92
2021/12/28 00:20:39;;;;;;;;;;;9.40;99.90;9.80;98419.00;;;;416422;23;91191;-92
2021/12/28 00:20:53;;;;;;;;;;;9.40;99.90;9.90;98417.00;;;;413164;23;82495;-92
2021/12/28 00:21:06;;;;;;;;;;;9.40;99.90;9.80;98414.00;;;;414112;23;91382;-92
2021/12/28 00:21:18;;;;;;;;;;;9.40;99.90;9.90;98411.00;;;;416923;23;82539;-92
2021/12/28 00:21:30;;;;;;;;;;;9.40;99.90;9.90;98411.00;;;;413999;23;91864;-92
2021/12/28 00:21:43;;;;;;;;;;;9.40;99.90;9.90;98412.00;;;;417032;23;83333;-92
2021/12/28 00:21:55;;;;;;;;;;;9.40;99.90;9.90;98413.00;;;;416337;23;91090;-92
2021/12/28 00:22:07;;;;;;;;;;;9.40;99.90;9.90;98399.00;;;;416719;23;82636;-91
2021/12/28 00:22:19;;;;;;;;;;;9.40;99.90;9.90;98409.00;;;;418382;23;90413;-92
2021/12/28 00:22:31;;;;;;;;;;;9.40;99.90;10.00;98410.00;;;;416891;23;83392;-92
2021/12/28 00:22:43;;;;;;;;;;;9.40;99.90;9.90;98416.00;;;;416163;23;91444;-92
2021/12/28 00:22:56;;;;;;;;;;;9.40;99.90;9.90;98413.00;;;;416530;23;83325;-92
2021/12/28 00:23:10;;;;;;;;;;;9.40;99.90;9.90;98412.00;;;;415958;23;93162;-92
2021/12/28 00:23:26;;;;;;;;;;;9.40;99.90;9.90;98407.00;;;;417041;23;83373;-92
2021/12/28 00:23:40;;;;;;;;;;;9.40;99.90;9.90;98409.00;;;;416537;23;90584;-92
2021/12/28 00:23:52;;;;;;;;;;;9.40;99.90;9.90;98409.00;;;;414681;23;83529;-92
2021/12/28 00:24:05;;;;;;;;;;;9.40;99.90;9.90;98409.00;;;;416537;23;91095;-92
2021/12/28 00:24:30;;;;;;;;;;;9.40;99.90;9.90;98416.00;;;;416334;23;82662;-91
2021/12/28 00:24:43;;;;;;;;;;;9.40;99.90;9.90;98416.00;;;;414218;23;91981;-92
2021/12/28 00:24:56;;;;;;;;;;;9.40;99.90;9.90;98421.00;;;;417137;23;83330;-92
2021/12/28 00:25:10;;;;;;;;;;;9.40;99.90;9.80;98423.00;;;;416168;23;90460;-92
2021/12/28 00:25:22;;;;;;;;;;;9.40;99.90;9.80;98414.00;;;;415017;23;83473;-92
2021/12/28 00:25:34;;;;;;;;;;;9.40;99.90;9.90;98415.00;;;;418390;23;91936;-92
2021/12/28 00:25:48;;;;;;;;;;;9.40;99.90;9.90;98421.00;;;;416555;23;83364;-91
2021/12/28 00:26:00;;;;;;;;;;;9.40;99.90;9.90;98416.00;;;;415746;23;91485;-92
2021/12/28 00:26:13;;;;;;;;;;;9.40;99.90;9.90;98414.00;;;;416928;23;82461;-92
2021/12/28 00:26:27;;;;;;;;;;;9.40;99.90;9.90;98424.00;;;;414487;23;91265;-92
2021/12/28 00:26:39;;;;;;;;;;;9.40;99.90;9.90;98415.00;;;;418937;23;83327;-92
2021/12/28 00:26:52;;;;;;;;;;;9.40;99.90;9.90;98418.00;;;;416229;23;91289;-93
2021/12/28 00:27:04;;;;;;;;;;;9.40;99.90;9.80;98420.00;;;;416963;23;82497;-92
2021/12/28 00:27:16;;;;;;;;;;;9.40;99.90;9.90;98423.00;;;;416047;23;91796;-92
2021/12/28 00:27:42;;;;;;;;;;;9.40;99.90;9.90;98427.00;;;;414814;23;83634;-92
2021/12/28 00:27:55;;;;;;;;;;;9.40;99.90;9.90;98422.00;;;;418063;23;92292;-92
2021/12/28 00:28:07;;;;;;;;;;;9.40;99.90;9.90;98417.00;;;;416377;23;82509;-92
2021/12/28 00:28:19;;;;;;;;;;;9.40;99.90;9.90;98412.00;;;;414460;23;90802;-92
2021/12/28 00:28:31;;;;;;;;;;;9.40;99.90;9.90;98414.00;;;;414556;23;82637;-92
2021/12/28 00:28:44;;;;;;;;;;;9.40;99.90;9.90;98404.00;;;;416467;23;89690;-92
2021/12/28 00:28:56;;;;;;;;;;;9.40;99.90;9.90;98411.00;;;;414420;23;83389;-91
2021/12/28 00:29:08;;;;;;;;;;;9.40;99.90;9.90;98413.00;;;;416099;23;91594;-92
2021/12/28 00:29:20;;;;;;;;;;;9.40;99.90;9.90;98415.00;;;;414647;23;82646;-92
2021/12/28 00:29:32;;;;;;;;;;;9.40;99.90;9.90;98411.00;;;;414074;23;92081;-92
2021/12/28 00:29:44;;;;;;;;;;;9.40;99.90;9.90;98416.00;;;;414234;23;83408;-93
2021/12/28 00:30:10;;;;;;;;;;;9.40;99.90;9.90;98410.00;;;;415110;23;91183;-92
2021/12/28 00:30:22;;;;;;;;;;;9.40;99.90;9.90;98414.00;;;;414415;23;82624;-91
2021/12/28 00:30:34;;;;;;;;;;;9.40;99.90;9.90;98400.00;;;;416163;23;91583;-92
2021/12/28 00:30:47;;;;;;;;;;;9.40;99.90;9.90;98409.00;;;;416576;23;83421;-92
2021/12/28 00:30:59;;;;;;;;;;;9.40;99.90;9.90;98418.00;;;;414148;23;91947;-92
2021/12/28 00:31:13;;;;;;;;;;;9.50;99.90;9.90;98410.00;;;;418595;23;83522;-92
2021/12/28 00:31:26;;;;;;;;;;;9.40;99.90;9.80;98405.00;;;;416312;23;91021;-91
2021/12/28 00:31:38;;;;;;;;;;;9.40;99.90;9.80;98410.00;;;;412630;23;82502;-92
2021/12/28 00:31:50;;;;;;;;;;;9.40;99.90;9.90;98405.00;;;;418027;23;91900;-92
2021/12/28 00:32:02;;;;;;;;;;;9.40;99.90;9.80;98409.00;;;;416523;23;83392;-92
2021/12/28 00:32:14;;;;;;;;;;;9.40;99.90;9.80;98401.00;;;;418081;23;92704;-92
2021/12/28 00:32:26;;;;;;;;;;;9.40;99.90;9.80;98391.00;;;;416892;23;83432;-92
2021/12/28 00:32:38;;;;;;;;;;;9.40;99.90;9.90;98400.00;;;;416094;23;91967;-92
2021/12/28 00:32:56;;;;;;;;;;;9.40;99.90;9.90;98400.00;;;;414596;23;83748;-92
2021/12/28 00:33:08;;;;;;;;;;;9.40;99.90;9.80;98395.00;;;;416072;23;90117;-92
2021/12/28 00:33:22;;;;;;;;;;;9.40;99.90;9.80;98403.00;;;;414552;23;84270;-92
2021/12/28 00:33:34;;;;;;;;;;;9.40;99.90;9.90;98406.00;;;;416159;23;92092;-92
2021/12/28 00:33:46;;;;;;;;;;;9.40;99.90;9.90;98401.00;;;;416911;23;83397;-92
2021/12/28 00:33:58;;;;;;;;;;;9.40;99.90;9.80;98401.00;;;;412499;23;90772;-91
2021/12/28 00:34:10;;;;;;;;;;;9.40;99.90;9.80;98394.00;;;;416731;23;82524;-92
2021/12/28 00:34:23;;;;;;;;;;;9.40;99.90;9.80;98403.00;;;;417930;23;91797;-92
2021/12/28 00:34:35;;;;;;;;;;;9.40;99.90;9.80;98400.00;;;;414798;23;82558;-92
2021/12/28 00:34:47;;;;;;;;;;;9.40;99.90;9.90;98399.00;;;;414150;23;91560;-91
2021/12/28 00:35:00;;;;;;;;;;;9.40;99.90;9.90;98396.00;;;;414620;23;82411;-92
2021/12/28 00:35:12;;;;;;;;;;;9.40;99.90;9.90;98395.00;;;;416076;23;91798;-92
2021/12/28 00:35:29;;;;;;;;;;;9.40;99.90;9.90;98397.00;;;;420885;23;82529;-93
2021/12/28 00:35:41;;;;;;;;;;;9.40;99.90;9.90;98395.00;;;;416039;23;91029;-93
2021/12/28 00:35:53;;;;;;;;;;;9.40;99.90;9.80;98387.00;;;;418573;23;82541;-92
2021/12/28 00:36:05;;;;;;;;;;;9.40;99.90;9.90;98387.00;;;;418070;23;91400;-92
2021/12/28 00:36:17;;;;;;;;;;;9.40;99.90;9.90;98391.00;;;;412508;23;83347;-93
2021/12/28 00:36:29;;;;;;;;;;;9.40;99.90;9.90;98398.00;;;;411949;23;92250;-92
2021/12/28 00:36:41;;;;;;;;;;;9.40;99.90;9.90;98394.00;;;;416908;23;83416;-92
2021/12/28 00:36:54;;;;;;;;;;;9.40;99.90;9.80;98394.00;;;;414084;23;91800;-92
2021/12/28 00:37:06;;;;;;;;;;;9.40;99.90;9.80;98395.00;;;;412936;23;83374;-93
2021/12/28 00:37:18;;;;;;;;;;;9.40;99.90;9.90;98396.00;;;;415999;23;90058;-93
2021/12/28 00:37:30;;;;;;;;;;;9.40;99.90;9.90;98390.00;;;;418389;23;83197;-92
2021/12/28 00:37:42;;;;;;;;;;;9.40;99.90;9.90;98389.00;;;;414128;23;91251;-92
2021/12/28 00:37:54;;;;;;;;;;;9.40;99.90;9.80;98387.00;;;;416414;23;82539;-92
2021/12/28 00:38:10;;;;;;;;;;;9.40;99.90;9.80;98385.00;;;;416509;23;90837;-92
2021/12/28 00:38:23;;;;;;;;;;;9.40;99.90;9.80;98396.00;;;;414558;23;83375;-93
2021/12/28 00:38:35;;;;;;;;;;;9.40;99.90;9.80;98372.00;;;;415983;23;91345;-93
2021/12/28 00:38:48;;;;;;;;;;;9.40;99.90;9.80;98378.00;;;;416260;23;83368;-92
2021/12/28 00:39:00;;;;;;;;;;;9.40;99.90;9.80;98382.00;;;;412149;23;89763;-92
2021/12/28 00:39:13;;;;;;;;;;;9.40;99.90;9.70;98386.00;;;;416513;23;83414;-92
2021/12/28 00:39:39;;;;;;;;;;;9.40;99.90;9.70;98379.00;;;;415535;23;89916;-92
2021/12/28 00:39:51;;;;;;;;;;;9.40;99.90;9.80;98368.00;;;;419055;23;83297;-92
2021/12/28 00:40:04;;;;;;;;;;;9.40;99.90;9.80;98379.00;;;;418499;23;90643;-93
2021/12/28 00:40:46;;;;;;;;;;;9.30;99.90;9.80;98390.00;;;;350425;27;76044;-92
2021/12/28 00:40:59;;;;;;;;;;;9.40;99.90;9.80;98377.00;;;;347129;28;82576;-92
2021/12/28 00:41:11;;;;;;;;;;;9.30;99.90;9.80;98376.00;;;;344465;28;85401;-92
2021/12/28 00:41:23;;;;;;;;;;;9.30;99.90;9.80;98381.00;;;;345262;28;82507;-91
2021/12/28 00:41:35;;;;;;;;;;;9.30;99.90;9.80;98381.00;;;;345008;28;86773;-92
2021/12/28 00:41:47;;;;;;;;;;;9.30;99.90;9.80;98386.00;;;;344348;28;83384;-92
2021/12/28 00:41:59;;;;;;;;;;;9.30;99.90;9.80;98388.00;;;;344304;28;87443;-92
2021/12/28 00:42:10;;;;;;;;;;;9.30;99.90;9.70;98387.00;;;;347222;28;83494;-92
2021/12/28 00:42:23;;;;;;;;;;;9.30;99.90;9.80;98397.00;;;;345777;28;87315;-92
2021/12/28 00:42:35;;;;;;;;;;;9.30;99.90;9.80;98392.00;;;;345732;28;83456;-92
2021/12/28 00:42:46;;;;;;;;;;;9.30;99.90;9.80;98393.00;;;;344321;28;86419;-92
2021/12/28 00:42:58;;;;;;;;;;;9.30;99.90;9.70;98388.00;;;;345689;28;83459;-92
2021/12/28 00:43:10;;;;;;;;;;;9.30;99.90;9.70;98378.00;;;;344265;28;87820;-92
2021/12/28 00:43:22;;;;;;;;;;;9.30;99.90;9.70;98385.00;;;;347246;28;82535;-92
2021/12/28 00:43:34;;;;;;;;;;;9.30;99.90;9.70;98382.00;;;;348115;27;87809;-92
2021/12/28 00:43:46;;;;;;;;;;;9.30;99.90;9.80;98391.00;;;;345753;28;83429;-92
2021/12/28 00:43:58;;;;;;;;;;;9.30;99.90;9.70;98386.00;;;;342925;28;87379;-93
2021/12/28 00:44:10;;;;;;;;;;;9.30;99.90;9.70;98389.00;;;;348525;27;83458;-92
2021/12/28 00:44:22;;;;;;;;;;;9.30;99.90;9.70;98388.00;;;;344442;28;87059;-92
2021/12/28 00:44:37;;;;;;;;;;;9.30;99.90;9.70;98382.00;;;;345732;28;82526;-92
2021/12/28 00:44:49;;;;;;;;;;;9.30;99.90;9.80;98396.00;;;;344324;28;87369;-92
2021/12/28 00:45:01;;;;;;;;;;;9.30;99.90;9.70;98389.00;;;;347077;28;83505;-92
2021/12/28 00:45:13;;;;;;;;;;;9.30;99.90;9.70;98392.00;;;;347109;28;86281;-92
2021/12/28 00:45:25;;;;;;;;;;;9.30;99.90;9.70;98387.00;;;;345736;28;83528;-93
2021/12/28 00:45:37;;;;;;;;;;;9.30;99.90;9.70;98384.00;;;;345451;28;88142;-92
2021/12/28 00:45:49;;;;;;;;;;;9.30;99.90;9.70;98397.00;;;;347169;28;83494;-92
2021/12/28 00:46:01;;;;;;;;;;;9.30;99.90;9.70;98389.00;;;;347178;28;87803;-92
2021/12/28 00:46:14;;;;;;;;;;;9.30;99.90;9.70;98397.00;;;;347557;27;83565;-92
2021/12/28 00:46:26;;;;;;;;;;;9.20;99.90;9.70;98392.00;;;;345707;28;87679;-92
2021/12/28 00:46:38;;;;;;;;;;;9.20;99.90;9.70;98403.00;;;;346196;28;82806;-92
2021/12/28 00:46:50;;;;;;;;;;;9.20;99.90;9.70;98395.00;;;;345746;28;87998;-92
2021/12/28 00:47:02;;;;;;;;;;;9.20;99.90;9.80;98401.00;;;;347426;27;83360;-92
2021/12/28 00:47:14;;;;;;;;;;;9.20;99.90;9.70;98397.00;;;;344363;28;85749;-92
2021/12/28 00:47:26;;;;;;;;;;;9.30;99.90;9.70;98389.00;;;;344430;28;83429;-92
2021/12/28 00:47:38;;;;;;;;;;;9.20;99.90;9.60;98403.00;;;;344798;28;86531;-92
2021/12/28 00:47:50;;;;;;;;;;;9.20;99.90;9.70;98388.00;;;;344254;28;83548;-92
2021/12/28 00:48:02;;;;;;;;;;;9.20;99.90;9.70;98397.00;;;;345773;28;87235;-92
2021/12/28 00:48:14;;;;;;;;;;;9.20;99.90;9.70;98399.00;;;;344441;28;84351;-92
2021/12/28 00:48:26;;;;;;;;;;;9.20;99.90;9.70;98396.00;;;;348495;27;85794;-92
2021/12/28 00:48:38;;;;;;;;;;;9.20;99.90;9.70;98403.00;;;;344355;28;83416;-92
2021/12/28 00:48:50;;;;;;;;;;;9.30;99.90;9.80;98403.00;;;;344349;28;87490;-92
2021/12/28 00:49:02;;;;;;;;;;;9.20;99.90;9.70;98393.00;;;;347161;28;83470;-92
2021/12/28 00:49:15;;;;;;;;;;;9.30;99.90;9.80;98402.00;;;;344020;28;85655;-93
2021/12/28 00:49:28;;;;;;;;;;;9.20;99.90;9.70;98392.00;;;;343083;28;82477;-93
2021/12/28 00:49:40;;;;;;;;;;;9.20;99.90;9.70;98397.00;;;;345245;28;87109;-92
2021/12/28 00:49:52;;;;;;;;;;;9.30;99.90;9.70;98392.00;;;;342888;28;83567;-92
2021/12/28 00:50:04;;;;;;;;;;;9.20;99.90;9.70;98391.00;;;;344449;28;86585;-93
2021/12/28 00:50:17;;;;;;;;;;;9.20;99.90;9.60;98394.00;;;;343763;28;83588;-92
2021/12/28 00:50:28;;;;;;;;;;;9.30;99.90;9.60;98384.00;;;;344354;28;87225;-91
2021/12/28 00:50:41;;;;;;;;;;;9.20;99.90;9.70;98391.00;;;;344196;28;83513;-91
2021/12/28 00:50:53;;;;;;;;;;;9.20;99.90;9.70;98388.00;;;;345474;28;87478;-92
2021/12/28 00:51:05;;;;;;;;;;;9.20;99.90;9.60;98389.00;;;;345795;28;83310;-92
2021/12/28 00:51:17;;;;;;;;;;;9.20;99.90;9.70;98383.00;;;;344257;28;88323;-92
2021/12/28 00:51:29;;;;;;;;;;;9.20;99.90;9.70;98374.00;;;;344372;28;83315;-93
2021/12/28 00:51:41;;;;;;;;;;;9.20;99.90;9.70;98375.00;;;;344433;28;87228;-92
2021/12/28 00:51:55;;;;;;;;;;;9.30;99.90;9.70;98382.00;;;;342655;28;83567;-93
2021/12/28 00:52:07;;;;;;;;;;;9.20;99.90;9.70;98372.00;;;;344361;28;86597;-92
2021/12/28 00:52:18;;;;;;;;;;;9.20;99.90;9.70;98373.00;;;;344445;28;83444;-92
2021/12/28 00:52:30;;;;;;;;;;;9.20;99.90;9.70;98378.00;;;;344158;28;86600;-92
2021/12/28 00:52:42;;;;;;;;;;;9.20;99.90;9.80;98382.00;;;;346156;28;83480;-92
2021/12/28 00:52:57;;;;;;;;;;;9.20;99.90;9.80;98381.00;;;;346989;28;86756;-92
2021/12/28 00:53:10;;;;;;;;;;;9.20;99.90;9.80;98376.00;;;;345491;28;82698;-92
2021/12/28 00:53:22;;;;;;;;;;;9.20;99.90;9.80;98388.00;;;;345731;28;87663;-93
2021/12/28 00:53:34;;;;;;;;;;;9.20;99.90;9.70;98381.00;;;;346797;28;83263;-92
2021/12/28 00:53:46;;;;;;;;;;;9.30;99.90;9.60;98385.00;;;;344237;28;87816;-92
2021/12/28 00:53:57;;;;;;;;;;;9.20;99.90;9.70;98387.00;;;;345617;28;84027;-92
2021/12/28 00:54:09;;;;;;;;;;;9.20;99.90;9.70;98390.00;;;;345794;28;87200;-92
2021/12/28 00:54:22;;;;;;;;;;;9.20;99.90;9.70;98398.00;;;;345259;28;83365;-92
2021/12/28 00:54:34;;;;;;;;;;;9.20;99.90;9.70;98398.00;;;;344200;28;87529;-92
2021/12/28 00:54:46;;;;;;;;;;;9.20;99.90;9.70;98391.00;;;;345674;28;83402;-92
2021/12/28 00:54:57;;;;;;;;;;;9.20;99.90;9.70;98389.00;;;;344385;28;87218;-92
2021/12/28 00:55:10;;;;;;;;;;;9.30;99.90;9.80;98397.00;;;;343039;28;83553;-92
2021/12/28 00:55:22;;;;;;;;;;;9.20;99.90;9.70;98395.00;;;;345764;28;85852;-92
2021/12/28 00:55:34;;;;;;;;;;;9.30;99.90;9.80;98387.00;;;;346828;28;83502;-92
2021/12/28 00:55:45;;;;;;;;;;;9.30;99.90;9.70;98391.00;;;;345400;28;86641;-92
2021/12/28 00:55:57;;;;;;;;;;;9.20;99.90;9.70;98391.00;;;;344303;28;83515;-92
2021/12/28 00:56:10;;;;;;;;;;;9.20;99.90;9.60;98393.00;;;;344503;28;87107;-92
2021/12/28 00:56:22;;;;;;;;;;;9.20;99.90;9.70;98390.00;;;;345695;28;83500;-92
2021/12/28 00:56:35;;;;;;;;;;;9.20;99.90;9.70;98401.00;;;;345543;28;87955;-92
2021/12/28 00:56:47;;;;;;;;;;;9.20;99.90;9.70;98393.00;;;;344343;28;83468;-92
2021/12/28 00:57:01;;;;;;;;;;;9.20;99.90;9.70;98399.00;;;;345031;28;87383;-92
2021/12/28 00:57:13;;;;;;;;;;;9.30;99.90;9.70;98403.00;;;;343259;28;83578;-92
2021/12/28 00:57:25;;;;;;;;;;;9.20;99.90;9.70;98394.00;;;;344386;28;86610;-91
2021/12/28 00:57:36;;;;;;;;;;;9.20;99.90;9.70;98401.00;;;;345698;28;83488;-93
2021/12/28 00:57:49;;;;;;;;;;;9.20;99.90;9.60;98390.00;;;;342939;28;86633;-92
2021/12/28 00:58:01;;;;;;;;;;;9.20;99.90;9.70;98397.00;;;;344467;28;82549;-92
2021/12/28 00:58:12;;;;;;;;;;;9.20;99.90;9.70;98387.00;;;;344411;28;88024;-92
2021/12/28 00:58:24;;;;;;;;;;;9.20;99.90;9.70;98389.00;;;;345702;28;83519;-92
2021/12/28 00:58:37;;;;;;;;;;;9.30;99.90;9.70;98389.00;;;;344655;28;86746;-92
2021/12/28 00:58:49;;;;;;;;;;;9.20;99.90;9.80;98398.00;;;;345774;28;82796;-92
2021/12/28 00:59:01;;;;;;;;;;;9.20;99.90;9.70;98391.00;;;;344016;28;85891;-92
2021/12/28 00:59:12;;;;;;;;;;;9.20;99.90;9.70;98388.00;;;;345681;28;83529;-92
2021/12/28 00:59:25;;;;;;;;;;;9.20;99.90;9.70;98381.00;;;;347021;28;88045;-93
2021/12/28 00:59:37;;;;;;;;;;;9.20;99.90;9.70;98381.00;;;;346420;28;82592;-92
2021/12/28 00:59:49;;;;;;;;;;;9.20;99.90;9.80;98374.00;;;;345676;28;87892;-93
2021/12/28 01:00:02;;;;;;;;;;;9.20;99.90;9.70;98377.00;;;;345762;28;83309;-92
2021/12/28 01:00:16;;;;;;;;;;;9.20;99.90;9.70;98382.00;;;;344437;28;86664;-92
2021/12/28 01:00:30;;;;;;;;;;;9.20;99.90;9.70;98378.00;;;;347082;28;83591;-93
2021/12/28 01:00:43;;;;;;;;;;;9.20;99.90;9.70;98387.00;;;;345470;28;87116;-92
2021/12/28 01:00:55;;;;;;;;;;;9.30;99.90;9.70;98373.00;;;;343077;28;82708;-92
2021/12/28 01:01:07;;;;;;;;;;;9.20;99.90;9.80;98374.00;;;;348425;27;85683;-93
2021/12/28 01:01:19;;;;;;;;;;;9.20;99.90;9.70;98375.00;;;;345794;28;82534;-92
2021/12/28 01:01:32;;;;;;;;;;;9.20;99.90;9.80;98380.00;;;;344368;28;85996;-92
2021/12/28 01:01:44;;;;;;;;;;;9.20;99.90;9.80;98378.00;;;;348471;27;83456;-93
2021/12/28 01:01:56;;;;;;;;;;;9.30;99.90;9.70;98372.00;;;;345637;28;87870;-92
2021/12/28 01:02:08;;;;;;;;;;;9.20;99.90;9.70;98359.00;;;;346881;28;82655;-93
2021/12/28 01:02:20;;;;;;;;;;;9.30;99.90;9.70;98356.00;;;;345752;28;86778;-92
2021/12/28 01:02:32;;;;;;;;;;;9.20;99.90;9.70;98362.00;;;;348289;27;83448;-92
2021/12/28 01:02:45;;;;;;;;;;;9.20;99.90;9.70;98360.00;;;;347190;28;88188;-92
2021/12/28 01:02:57;;;;;;;;;;;9.20;99.90;9.70;98352.00;;;;346972;28;83613;-92
2021/12/28 01:03:10;;;;;;;;;;;9.20;99.90;9.70;98364.00;;;;345468;28;86092;-92
2021/12/28 01:03:22;;;;;;;;;;;9.20;99.90;9.80;98353.00;;;;345738;28;83405;-93
2021/12/28 01:03:36;;;;;;;;;;;9.30;99.90;9.80;98350.00;;;;345656;28;86639;-92
2021/12/28 01:03:48;;;;;;;;;;;9.20;99.90;9.70;98354.00;;;;345734;28;83390;-93
2021/12/28 01:04:04;;;;;;;;;;;9.20;99.90;9.70;98355.00;;;;343040;28;86518;-92
2021/12/28 01:04:16;;;;;;;;;;;9.30;99.90;9.80;98347.00;;;;345545;28;82427;-92
2021/12/28 01:04:28;;;;;;;;;;;9.20;99.90;9.80;98360.00;;;;344273;28;86491;-92
2021/12/28 01:04:40;;;;;;;;;;;9.20;99.90;9.80;98354.00;;;;343461;28;85761;-92
2021/12/28 01:04:52;;;;;;;;;;;9.30;99.90;9.80;98355.00;;;;344513;28;85595;-92
2021/12/28 01:05:04;;;;;;;;;;;9.30;99.90;9.70;98346.00;;;;347249;28;82525;-92
2021/12/28 01:05:16;;;;;;;;;;;9.20;99.90;9.70;98349.00;;;;344450;28;85900;-92
2021/12/28 01:05:28;;;;;;;;;;;9.30;99.90;9.60;98357.00;;;;343085;28;82449;-92
2021/12/28 01:05:40;;;;;;;;;;;9.20;99.90;9.60;98344.00;;;;345708;28;86409;-92
2021/12/28 01:05:53;;;;;;;;;;;9.20;99.90;9.60;98344.00;;;;345769;28;83457;-91
2021/12/28 01:06:05;;;;;;;;;;;9.20;99.90;9.60;98348.00;;;;347094;28;86351;-92
2021/12/28 01:06:17;;;;;;;;;;;9.20;99.90;9.60;98343.00;;;;344443;28;83268;-92
2021/12/28 01:06:29;;;;;;;;;;;9.20;99.90;9.60;98351.00;;;;345618;28;87857;-93
2021/12/28 01:06:41;;;;;;;;;;;9.20;99.90;9.70;98344.00;;;;344579;28;82551;-92
2021/12/28 01:06:53;;;;;;;;;;;9.20;99.90;9.70;98338.00;;;;348403;27;87342;-91
2021/12/28 01:07:05;;;;;;;;;;;9.20;99.90;9.70;98347.00;;;;347079;28;83517;-92
2021/12/28 01:07:17;;;;;;;;;;;9.20;99.90;9.70;98353.00;;;;344354;28;86037;-93
2021/12/28 01:07:29;;;;;;;;;;;9.20;99.90;9.60;98361.00;;;;347166;28;82551;-92
2021/12/28 01:07:41;;;;;;;;;;;9.20;99.90;9.60;98369.00;;;;342331;28;86228;-92